Petersburg James A Johnson Airport Petersburg US
ICAO: PAPG
IATA:
Category: Medium
Scheduled Services:

Elevation: 111 ft
TransAlt. 18000 ft.

Airport Communications:
AWOS 3:125.8
ANCHORAGE CNTR:118
CTAF:122.5
SITKA RDO:122.35

PAPG Zoom In..

If you have problems with the map follow the link
https://www.worldairports.se/pages/airport.php?
ICAO=PAPG

Runways:

(A) RW 05 length 6400 ft width 150 ft
---- / hdg 50

(B) RW 23 length 6400 ft width 150 ft
---- / hdg 230

Location; PAPG
Day. 21 / Time. 20.56 Zulu
* Altimeter: 29.42
* Temperature: 01° c. 33.8°f.
* Wind from: 000° Speed 00 kn.
Dewpoint: 01° c.
Visibility: 10 Statute Miles.
Clouds: Scattered 500 ft.
Clouds: Broken 5000 ft.
Clouds: Overcast 6000 ft.
Conditions: Fog Patches.

PAPG 212056Z 00000KT 10SM BCFG SCT005 BKN050 OVC060 01/01 A2942


Wind - Calm.

 
 
jpsmedia worldairports.se 2020   terms of use